createdAt,value
2019-03-02T00:00:23.561Z,17.77
2019-03-02T00:02:51.975Z,16.17
2019-03-02T00:05:20.884Z,16.20
2019-03-02T00:07:50.551Z,16.77
2019-03-02T00:10:18.982Z,15.50
2019-03-02T00:12:47.414Z,15.30
2019-03-02T00:15:15.877Z,15.90
2019-03-02T00:17:44.300Z,14.97
2019-03-02T00:20:14.822Z,16.47
2019-03-02T00:22:43.516Z,16.57
2019-03-02T00:25:13.270Z,15.37
2019-03-02T00:27:41.701Z,16.33
2019-03-02T00:30:12.475Z,13.20
2019-03-02T00:32:41.615Z,13.60
2019-03-02T00:35:11.059Z,13.10
2019-03-02T00:37:39.496Z,13.20
2019-03-02T00:40:09.859Z,11.50
2019-03-02T00:42:38.291Z,11.97
2019-03-02T00:45:10.628Z,11.07
2019-03-02T00:47:39.696Z,12.67
2019-03-02T00:50:08.352Z,11.77
2019-03-02T00:52:36.797Z,12.30
2019-03-02T00:55:06.747Z,11.03
2019-03-02T00:57:35.340Z,12.00
2019-03-02T01:00:05.229Z,12.90
2019-03-02T01:02:36.809Z,11.50
2019-03-02T01:05:05.364Z,11.23
2019-03-02T01:07:33.809Z,11.70
2019-03-02T01:10:02.320Z,12.77
2019-03-02T01:12:30.755Z,11.90
2019-03-02T01:14:59.191Z,10.90
2019-03-02T01:17:30.751Z,11.13
2019-03-02T01:19:57.783Z,10.73
2019-03-02T01:22:26.286Z,10.30
2019-03-02T01:24:54.776Z,12.00
2019-03-02T01:27:23.223Z,10.03
2019-03-02T01:29:54.404Z,12.07
2019-03-02T01:32:21.811Z,10.80
2019-03-02T01:34:50.239Z,10.83
2019-03-02T01:37:18.663Z,9.83
2019-03-02T01:39:47.096Z,8.53
2019-03-02T01:42:15.517Z,9.77
2019-03-02T01:44:43.943Z,9.60
2019-03-02T01:47:15.601Z,10.00
2019-03-02T01:49:43.077Z,9.23
2019-03-02T01:52:11.491Z,9.30
2019-03-02T01:54:40.003Z,9.23
2019-03-02T01:57:08.439Z,10.10
2019-03-02T01:59:38.797Z,9.80
2019-03-02T02:02:07.003Z,9.50
2019-03-02T02:04:35.431Z,9.90
2019-03-02T02:07:04.115Z,9.67
2019-03-02T02:09:32.615Z,10.30
2019-03-02T02:12:01.035Z,8.80
2019-03-02T02:14:50.880Z,10.23
2019-03-02T02:17:18.955Z,9.10
2019-03-02T02:19:47.386Z,10.07
2019-03-02T02:22:15.804Z,9.83
2019-03-02T02:24:44.232Z,9.90
2019-03-02T02:27:12.655Z,11.10
2019-03-02T02:29:43.548Z,11.33
2019-03-02T02:32:11.263Z,11.13
2019-03-02T02:34:39.705Z,10.60
2019-03-02T02:37:08.120Z,10.70
2019-03-02T02:39:36.924Z,11.23
2019-03-02T02:42:06.736Z,10.40
2019-03-02T02:44:37.718Z,10.63
2019-03-02T02:47:07.124Z,9.93
2019-03-02T02:49:36.696Z,10.93
2019-03-02T02:52:05.109Z,9.63
2019-03-02T02:54:33.535Z,10.23
2019-03-02T02:57:02.015Z,10.50
2019-03-02T02:59:34.090Z,10.23
2019-03-02T03:02:00.597Z,11.53
2019-03-02T03:04:32.491Z,16.53
2019-03-02T03:06:59.208Z,20.00
2019-03-02T03:09:29.282Z,31.43
2019-03-02T03:11:57.703Z,26.67
2019-03-02T03:14:26.132Z,26.80
2019-03-02T03:16:55.681Z,26.00
2019-03-02T03:19:26.150Z,21.93
2019-03-02T03:21:54.304Z,25.17
2019-03-02T03:24:22.733Z,32.37
2019-03-02T03:26:51.165Z,41.47
2019-03-02T03:29:19.594Z,35.77
2019-03-02T03:31:48.016Z,25.13
2019-03-02T03:34:28.442Z,19.83
2019-03-02T03:36:46.596Z,14.47
2019-03-02T03:39:15.018Z,14.23
2019-03-02T03:41:44.901Z,11.90
2019-03-02T03:44:17.699Z,11.37
2019-03-02T03:46:43.691Z,10.20
2019-03-02T03:49:12.109Z,9.73
2019-03-02T03:51:40.547Z,10.27
2019-03-02T03:54:09.128Z,10.27
2019-03-02T03:56:41.919Z,11.10
2019-03-02T03:59:07.705Z,9.83
2019-03-02T04:01:37.058Z,8.67
2019-03-02T04:04:05.482Z,9.00
2019-03-02T04:06:34.652Z,9.07
2019-03-02T04:09:08.243Z,8.43
2019-03-02T04:11:37.765Z,9.47
2019-03-02T04:14:03.957Z,9.43
2019-03-02T04:16:32.455Z,10.10
2019-03-02T04:19:00.907Z,8.53
2019-03-02T04:21:35.114Z,9.23
2019-03-02T04:24:03.536Z,9.53
2019-03-02T04:26:36.810Z,8.47
2019-03-02T04:29:09.030Z,9.33
2019-03-02T04:31:32.260Z,9.43
2019-03-02T04:34:00.691Z,10.23
2019-03-02T04:36:29.123Z,9.83
2019-03-02T04:39:16.884Z,9.93
2019-03-02T04:41:45.320Z,11.97
2019-03-02T04:44:13.738Z,10.37
2019-03-02T04:46:42.180Z,9.77
2019-03-02T04:49:11.002Z,9.77
2019-03-02T04:51:40.760Z,10.40
2019-03-02T04:54:09.191Z,9.33
2019-03-02T04:56:37.619Z,10.33
2019-03-02T04:59:25.400Z,9.40
2019-03-02T05:01:53.883Z,9.77
2019-03-02T05:04:22.305Z,9.70
2019-03-02T05:06:54.385Z,9.80
2019-03-02T05:09:20.892Z,10.30
2019-03-02T05:11:49.323Z,9.93
2019-03-02T05:14:17.746Z,10.67
2019-03-02T05:16:46.180Z,10.23
2019-03-02T05:19:14.595Z,9.83
2019-03-02T05:21:43.576Z,10.33
2019-03-02T05:24:12.832Z,9.57
2019-03-02T05:26:41.263Z,10.87
2019-03-02T05:29:09.683Z,9.53
2019-03-02T05:31:40.935Z,10.83
2019-03-02T05:34:08.272Z,10.47
2019-03-02T05:36:37.287Z,10.33
2019-03-02T05:39:06.088Z,10.60
2019-03-02T05:41:35.796Z,10.47
2019-03-02T05:44:04.667Z,10.07
2019-03-02T05:46:33.371Z,10.20
2019-03-02T05:49:01.795Z,9.77
2019-03-02T05:51:30.223Z,10.80
2019-03-02T05:53:58.654Z,10.67
2019-03-02T05:56:29.250Z,10.00
2019-03-02T05:58:57.233Z,10.60
2019-03-02T06:01:27.443Z,11.43
2019-03-02T06:03:55.971Z,11.30
2019-03-02T06:06:24.412Z,11.60
2019-03-02T06:08:52.840Z,11.40
2019-03-02T06:11:21.267Z,13.33
2019-03-02T06:13:49.734Z,13.63
2019-03-02T06:16:18.707Z,12.37
2019-03-02T06:18:48.325Z,12.17
2019-03-02T06:21:20.248Z,14.77
2019-03-02T06:23:48.743Z,13.27
2019-03-02T06:26:17.188Z,13.65
2019-03-02T06:28:45.610Z,14.17
2019-03-02T06:31:15.779Z,14.17
2019-03-02T06:33:45.310Z,14.30
2019-03-02T06:36:13.935Z,14.97
2019-03-02T06:38:42.371Z,15.20
2019-03-02T06:41:10.807Z,18.50
2019-03-02T06:43:39.231Z,16.70
2019-03-02T06:46:07.659Z,15.23
2019-03-02T06:48:36.096Z,14.93
2019-03-02T06:51:07.818Z,14.50
2019-03-02T06:53:37.100Z,17.70
2019-03-02T06:56:04.831Z,15.90
2019-03-02T06:58:33.268Z,15.20
2019-03-02T07:01:01.691Z,16.03
2019-03-02T07:03:30.279Z,15.10
2019-03-02T07:06:01.379Z,15.70
2019-03-02T07:08:32.772Z,16.60
2019-03-02T07:10:59.968Z,16.53
2019-03-02T07:13:28.731Z,16.97
2019-03-02T07:15:57.223Z,18.47
2019-03-02T07:18:27.724Z,18.90
2019-03-02T07:20:56.149Z,16.77
2019-03-02T07:23:27.512Z,17.77
2019-03-02T07:25:54.727Z,17.50
2019-03-02T07:28:23.181Z,17.10
2019-03-02T07:30:51.653Z,17.23
2019-03-02T07:33:20.097Z,18.47
2019-03-02T07:35:51.764Z,18.23
2019-03-02T07:38:20.374Z,19.10
2019-03-02T07:40:48.887Z,20.37
2019-03-02T07:43:17.323Z,18.37
2019-03-02T07:45:45.899Z,19.37
2019-03-02T07:48:14.615Z,18.55
2019-03-02T07:50:43.040Z,20.57
2019-03-02T07:53:11.463Z,17.63
2019-03-02T07:55:39.912Z,18.23
2019-03-02T07:58:08.356Z,18.30
2019-03-02T08:00:37.904Z,17.87
2019-03-02T08:03:07.863Z,18.00
2019-03-02T08:05:36.284Z,18.43
2019-03-02T08:08:06.939Z,20.07
2019-03-02T08:10:38.319Z,18.37
2019-03-02T08:13:05.033Z,18.93
2019-03-02T08:15:33.835Z,17.77
2019-03-02T08:18:02.273Z,18.57
2019-03-02T08:20:30.691Z,18.77
2019-03-02T08:22:59.127Z,18.67
2019-03-02T08:25:27.552Z,18.98
2019-03-02T08:27:56.065Z,20.43
2019-03-02T08:30:25.023Z,21.03
2019-03-02T08:32:57.773Z,18.67
2019-03-02T08:35:23.620Z,19.53
2019-03-02T08:37:52.053Z,20.50
2019-03-02T08:40:23.193Z,19.23
2019-03-02T08:42:50.633Z,21.87
2019-03-02T08:45:19.903Z,20.27
2019-03-02T08:47:48.336Z,20.80
2019-03-02T08:50:20.392Z,22.30
2019-03-02T08:52:48.896Z,22.33
2019-03-02T08:55:19.067Z,22.20
2019-03-02T08:57:47.488Z,22.37
2019-03-02T09:00:23.443Z,20.90
2019-03-02T09:02:55.159Z,19.80
2019-03-02T09:05:24.374Z,18.90
2019-03-02T09:07:52.174Z,21.60
2019-03-02T09:10:21.839Z,22.50
2019-03-02T09:12:50.379Z,19.87
2019-03-02T09:15:26.280Z,20.27
2019-03-02T09:17:54.852Z,19.57
2019-03-02T09:20:23.655Z,20.87
2019-03-02T09:23:11.438Z,20.80
2019-03-02T09:25:39.932Z,21.77
2019-03-02T09:28:08.350Z,21.10
2019-03-02T09:30:37.707Z,20.37
2019-03-02T09:33:06.126Z,21.23
2019-03-02T09:35:34.567Z,21.33
2019-03-02T09:38:02.999Z,21.70
2019-03-02T09:40:31.436Z,20.63
2019-03-02T09:42:59.859Z,19.87
2019-03-02T09:45:28.372Z,19.50
2019-03-02T09:47:56.796Z,18.57
2019-03-02T09:50:25.255Z,18.27
2019-03-02T09:52:55.845Z,16.50
2019-03-02T09:55:23.952Z,19.67
2019-03-02T09:57:52.379Z,17.60
2019-03-02T10:00:30.904Z,16.70
2019-03-02T10:02:59.318Z,17.43
2019-03-02T10:05:27.751Z,17.47
2019-03-02T10:07:56.183Z,17.87
2019-03-02T10:10:28.817Z,18.03
2019-03-02T10:12:54.771Z,18.63
2019-03-02T10:15:25.237Z,19.30
2019-03-02T10:17:53.655Z,18.17
2019-03-02T10:20:22.097Z,19.60
2019-03-02T10:22:50.524Z,17.17
2019-03-02T10:25:18.965Z,17.50
2019-03-02T10:27:47.388Z,17.00
2019-03-02T10:30:25.957Z,16.73
2019-03-02T10:32:55.656Z,17.43
2019-03-02T10:35:24.839Z,15.90
2019-03-02T10:37:53.435Z,14.70
2019-03-02T10:40:23.116Z,15.93
2019-03-02T10:42:51.791Z,15.17
2019-03-02T10:45:21.368Z,14.63
2019-03-02T10:47:49.793Z,12.93
2019-03-02T10:50:23.415Z,13.10
2019-03-02T10:52:51.082Z,12.73
2019-03-02T10:55:21.923Z,12.80
2019-03-02T10:57:50.414Z,12.57
2019-03-02T11:00:31.117Z,13.07
2019-03-02T11:03:12.492Z,10.80
2019-03-02T11:05:42.582Z,10.87
2019-03-02T11:08:29.903Z,11.17
2019-03-02T11:11:17.526Z,11.83
2019-03-02T11:14:05.523Z,11.73
2019-03-02T11:19:29.463Z,10.63
2019-03-02T11:22:05.195Z,11.60
2019-03-02T11:24:50.577Z,12.30
2019-03-02T11:27:36.938Z,12.63
2019-03-02T11:30:08.551Z,11.67
2019-03-02T11:32:42.627Z,12.37
2019-03-02T11:35:30.707Z,10.87
2019-03-02T11:38:09.839Z,11.57
2019-03-02T11:40:48.920Z,11.53
2019-03-02T11:43:31.004Z,11.00
2019-03-02T11:46:10.085Z,11.93
2019-03-02T11:48:48.481Z,11.60
2019-03-02T11:51:33.875Z,10.68
2019-03-02T11:54:03.945Z,10.77
2019-03-02T11:56:39.076Z,13.00
2019-03-02T11:59:10.584Z,12.40
2019-03-02T12:01:49.483Z,12.30
2019-03-02T12:04:34.831Z,11.87
2019-03-02T12:07:04.908Z,11.00
2019-03-02T12:09:40.593Z,10.33
2019-03-02T12:12:19.571Z,11.27
2019-03-02T12:14:49.640Z,11.80
2019-03-02T12:17:30.759Z,11.07
2019-03-02T12:20:08.893Z,11.17
2019-03-02T12:22:42.928Z,9.33
2019-03-02T12:25:31.011Z,10.00
2019-03-02T12:28:04.639Z,10.13
2019-03-02T12:30:40.495Z,10.70
2019-03-02T12:33:10.559Z,9.37
2019-03-02T12:35:43.490Z,9.10
2019-03-02T12:38:13.561Z,8.50
2019-03-02T12:41:00.084Z,9.00
2019-03-02T12:44:08.210Z,9.10
2019-03-02T12:46:59.111Z,9.00
2019-03-02T12:49:26.179Z,9.93
2019-03-02T12:52:15.753Z,9.30
2019-03-02T12:54:56.015Z,9.53
2019-03-02T12:57:45.456Z,9.93
2019-03-02T13:00:14.222Z,8.73
2019-03-02T13:02:56.265Z,8.63
2019-03-02T13:05:42.467Z,9.60
2019-03-02T13:08:15.249Z,8.73
2019-03-02T13:10:49.388Z,9.13
2019-03-02T13:13:24.844Z,9.43
2019-03-02T13:16:11.560Z,10.10
2019-03-02T13:18:46.973Z,9.67
2019-03-02T13:21:22.020Z,9.63
2019-03-02T13:24:01.143Z,10.50
2019-03-02T13:26:34.221Z,9.07
2019-03-02T13:29:07.475Z,8.80
2019-03-02T13:31:43.978Z,10.60
2019-03-02T13:34:19.950Z,9.23
2019-03-02T13:36:49.447Z,9.93
2019-03-02T13:39:35.700Z,9.70
2019-03-02T13:42:15.697Z,10.17
2019-03-02T13:44:45.876Z,10.10
2019-03-02T13:47:24.945Z,10.33
2019-03-02T13:49:55.026Z,9.80
2019-03-02T13:52:25.078Z,9.27
2019-03-02T13:55:13.477Z,9.80
2019-03-02T13:57:55.290Z,9.50
2019-03-02T14:00:31.431Z,9.53
2019-03-02T14:03:17.967Z,9.53
2019-03-02T14:05:57.067Z,10.97
2019-03-02T14:08:33.098Z,9.50
2019-03-02T14:11:19.523Z,10.57
2019-03-02T14:14:03.744Z,9.90
2019-03-02T14:16:55.259Z,9.47
2019-03-02T14:19:41.986Z,9.90
2019-03-02T14:22:28.076Z,9.80
2019-03-02T14:25:01.071Z,9.17
2019-03-02T14:27:34.119Z,9.90
2019-03-02T14:30:07.075Z,9.30
2019-03-02T14:32:37.134Z,9.90
2019-03-02T14:35:11.613Z,9.13
2019-03-02T14:37:47.766Z,9.83
2019-03-02T14:40:25.175Z,9.07
2019-03-02T14:43:15.921Z,9.53
2019-03-02T14:45:46.760Z,9.70
2019-03-02T14:48:16.563Z,9.93
2019-03-02T14:50:49.599Z,8.87
2019-03-02T14:53:31.937Z,10.33
2019-03-02T14:56:13.755Z,9.27
2019-03-02T14:58:42.808Z,9.10
2019-03-02T15:01:29.181Z,9.07
2019-03-02T15:04:11.196Z,9.67
2019-03-02T15:06:47.167Z,9.33
2019-03-02T15:09:33.554Z,9.33
2019-03-02T15:12:03.631Z,9.20
2019-03-02T15:14:53.044Z,9.87
2019-03-02T15:17:26.283Z,9.10
2019-03-02T15:19:59.067Z,9.30
2019-03-02T15:22:41.139Z,10.87
2019-03-02T15:25:17.263Z,9.30
2019-03-02T15:27:47.323Z,10.33
2019-03-02T15:30:36.931Z,9.43
2019-03-02T15:33:15.751Z,10.00
2019-03-02T15:35:45.823Z,11.33
2019-03-02T15:38:31.279Z,12.47
2019-03-02T15:41:10.421Z,13.07
2019-03-02T15:43:40.580Z,12.10
2019-03-02T15:46:37.077Z,13.30
2019-03-02T15:49:10.300Z,14.37
2019-03-02T15:51:43.035Z,16.60
2019-03-02T15:54:16.085Z,15.23
2019-03-02T15:56:51.853Z,15.10
2019-03-02T15:59:36.049Z,14.90
2019-03-02T16:02:11.439Z,14.77
2019-03-02T16:04:47.221Z,15.03
2019-03-02T16:07:19.920Z,15.77
2019-03-02T16:09:49.994Z,15.87
2019-03-02T16:12:20.047Z,16.37
2019-03-02T16:15:08.792Z,16.17
2019-03-02T16:17:40.053Z,36.77
2019-03-02T16:20:18.743Z,15.00
2019-03-02T16:23:05.898Z,15.73
2019-03-02T16:25:53.700Z,15.50
2019-03-02T16:28:42.557Z,14.80
2019-03-02T16:31:12.844Z,13.53
2019-03-02T16:33:44.482Z,14.63
2019-03-02T16:36:24.444Z,15.67
2019-03-02T16:39:02.829Z,14.63
2019-03-02T16:41:34.301Z,14.87
2019-03-02T16:44:15.735Z,14.93
2019-03-02T16:46:51.581Z,15.17
2019-03-02T16:49:27.643Z,16.60
2019-03-02T16:52:15.840Z,15.72
2019-03-02T16:54:51.928Z,14.83
2019-03-02T16:57:34.897Z,16.43
2019-03-02T17:00:10.342Z,17.40
2019-03-02T17:05:31.845Z,22.00
2019-03-02T17:08:18.113Z,17.53
2019-03-02T17:10:48.203Z,18.43
2019-03-02T17:13:21.256Z,18.07
2019-03-02T17:16:07.668Z,22.20
2019-03-02T17:18:37.731Z,17.97
2019-03-02T17:21:10.450Z,25.73
2019-03-02T17:23:43.315Z,17.60
2019-03-02T17:26:13.387Z,18.07
2019-03-02T17:28:59.819Z,19.20
2019-03-02T17:31:29.894Z,19.00
2019-03-02T17:34:03.578Z,17.63
2019-03-02T17:36:45.143Z,18.57
2019-03-02T17:39:15.502Z,18.63
2019-03-02T17:41:51.309Z,18.37
2019-03-02T17:44:23.463Z,18.50
2019-03-02T17:46:56.787Z,18.90
2019-03-02T17:49:29.852Z,17.87
2019-03-02T17:51:58.938Z,18.17
2019-03-02T17:54:46.474Z,18.77
2019-03-02T18:00:00.586Z,19.83
2019-03-02T18:02:50.327Z,19.47
2019-03-02T18:05:31.159Z,25.27
2019-03-02T18:08:08.728Z,19.77
2019-03-02T18:10:55.525Z,18.80
2019-03-02T18:13:43.197Z,20.00
2019-03-02T18:16:29.388Z,19.50
2019-03-02T18:18:57.901Z,19.05
2019-03-02T18:21:29.756Z,19.87
2019-03-02T18:23:59.261Z,19.90
2019-03-02T18:26:27.863Z,19.70
2019-03-02T18:28:56.519Z,19.50
2019-03-02T18:31:26.108Z,19.43
2019-03-02T18:33:56.266Z,19.73
2019-03-02T18:36:25.186Z,19.27
2019-03-02T18:38:55.263Z,20.37
2019-03-02T18:41:23.860Z,18.87
2019-03-02T18:43:52.364Z,19.23
2019-03-02T18:46:20.791Z,17.47
2019-03-02T18:48:50.873Z,19.23
2019-03-02T18:51:20.931Z,17.40
2019-03-02T18:54:12.054Z,18.57
2019-03-02T18:56:41.491Z,17.50
2019-03-02T18:59:09.934Z,18.23
2019-03-02T19:01:39.436Z,19.60
2019-03-02T19:04:08.111Z,19.03
2019-03-02T19:06:36.531Z,19.63
2019-03-02T19:09:07.800Z,22.77
2019-03-02T19:11:36.342Z,20.03
2019-03-02T19:14:05.140Z,17.33
2019-03-02T19:16:33.704Z,19.17
2019-03-02T19:19:02.279Z,18.60
2019-03-02T19:21:30.782Z,19.00
2019-03-02T19:23:59.350Z,19.07
2019-03-02T19:26:27.898Z,19.00
2019-03-02T19:28:56.974Z,18.57
2019-03-02T19:31:25.511Z,17.83
2019-03-02T19:33:54.337Z,17.77
2019-03-02T19:36:22.840Z,19.03
2019-03-02T19:38:51.320Z,17.80
2019-03-02T19:41:19.839Z,20.20
2019-03-02T19:43:48.319Z,17.93
2019-03-02T19:46:16.835Z,17.73
2019-03-02T19:48:45.371Z,18.67
2019-03-02T19:51:13.825Z,17.90
2019-03-02T19:53:42.279Z,17.17
2019-03-02T19:56:10.699Z,17.77
2019-03-02T19:58:39.115Z,17.27
2019-03-02T20:01:07.731Z,18.00
2019-03-02T20:03:36.166Z,16.37
2019-03-02T20:06:04.592Z,16.80
2019-03-02T20:08:33.019Z,18.00
2019-03-02T20:11:01.447Z,17.07
2019-03-02T20:13:29.872Z,17.97
2019-03-02T20:15:58.311Z,16.90
2019-03-02T20:18:26.747Z,16.50
2019-03-02T20:20:55.243Z,16.37
2019-03-02T20:23:23.667Z,16.50
2019-03-02T20:25:52.100Z,18.20
2019-03-02T20:28:20.519Z,17.63
2019-03-02T20:30:48.969Z,16.57
2019-03-02T20:33:17.389Z,17.87
2019-03-02T20:35:45.819Z,17.17
2019-03-02T20:38:14.269Z,17.77
2019-03-02T20:40:42.834Z,16.93
2019-03-02T20:43:11.448Z,16.17
2019-03-02T20:45:40.070Z,17.30
2019-03-02T20:48:09.467Z,15.63
2019-03-02T20:50:38.130Z,16.63
2019-03-02T20:53:06.580Z,16.90
2019-03-02T20:55:35.003Z,17.43
2019-03-02T20:58:03.514Z,17.40
2019-03-02T21:00:37.763Z,16.30
2019-03-02T21:03:06.173Z,16.13
2019-03-02T21:05:34.980Z,16.13
2019-03-02T21:08:03.467Z,16.80
2019-03-02T21:10:36.532Z,17.10
2019-03-02T21:13:05.082Z,16.17
2019-03-02T21:15:37.463Z,17.10
2019-03-02T21:18:06.631Z,17.57
2019-03-02T21:20:36.564Z,17.10
2019-03-02T21:23:05.583Z,18.77
2019-03-02T21:25:34.020Z,20.17
2019-03-02T21:28:02.464Z,17.60
2019-03-02T21:30:30.947Z,17.27
2019-03-02T21:32:59.423Z,18.10
2019-03-02T21:35:27.926Z,18.43
2019-03-02T21:37:56.347Z,17.43
2019-03-02T21:40:26.803Z,16.80
2019-03-02T21:42:55.404Z,16.93
2019-03-02T21:45:28.194Z,19.20
2019-03-02T21:47:56.617Z,18.30
2019-03-02T21:50:35.533Z,16.83
2019-03-02T21:53:04.019Z,18.43
2019-03-02T21:55:32.538Z,19.37
2019-03-02T21:58:01.012Z,17.80
2019-03-02T22:00:30.280Z,18.40
2019-03-02T22:02:58.715Z,18.77
2019-03-02T22:05:27.130Z,18.63
2019-03-02T22:07:55.579Z,16.40
2019-03-02T22:10:29.936Z,18.63
2019-03-02T22:12:58.375Z,17.30
2019-03-02T22:15:26.803Z,16.47
2019-03-02T22:17:56.973Z,16.47
2019-03-02T22:20:25.395Z,18.43
2019-03-02T22:22:53.835Z,16.37
2019-03-02T22:25:25.922Z,16.53
2019-03-02T22:27:54.347Z,18.20
2019-03-02T22:30:26.580Z,18.27
2019-03-02T22:32:55.000Z,17.77
2019-03-02T22:35:23.419Z,18.30
2019-03-02T22:37:51.859Z,16.43
2019-03-02T22:40:27.602Z,18.40
2019-03-02T22:42:56.615Z,17.30
2019-03-02T22:45:25.034Z,18.10
2019-03-02T22:47:53.471Z,17.67
2019-03-02T22:50:28.944Z,17.57
2019-03-02T22:52:57.407Z,17.07
2019-03-02T22:55:25.828Z,17.43
2019-03-02T22:57:54.264Z,17.30
2019-03-02T23:00:29.041Z,17.43
2019-03-02T23:02:56.397Z,17.00
2019-03-02T23:05:24.959Z,17.80
2019-03-02T23:07:53.396Z,18.17
2019-03-02T23:10:21.816Z,17.33
2019-03-02T23:12:50.247Z,17.90
2019-03-02T23:15:21.752Z,18.43
2019-03-02T23:17:50.183Z,18.30
2019-03-02T23:20:18.612Z,17.82
2019-03-02T23:22:47.046Z,19.53
2019-03-02T23:25:16.404Z,20.00
2019-03-02T23:27:44.835Z,18.53
2019-03-02T23:30:17.158Z,18.60
2019-03-02T23:32:45.667Z,17.60
2019-03-02T23:35:14.157Z,18.50
2019-03-02T23:37:42.584Z,19.43
2019-03-02T23:40:12.735Z,19.70
2019-03-02T23:42:41.154Z,19.47
2019-03-02T23:45:14.110Z,19.50
2019-03-02T23:47:42.535Z,20.17
2019-03-02T23:50:12.003Z,18.50
2019-03-02T23:52:40.495Z,18.07
2019-03-02T23:55:11.913Z,20.30
2019-03-02T23:57:40.330Z,19.57
